Time,TemperatureF,DewpointF,PressureIn,WindDirection,WindDirectionDegrees,WindSpeedMPH,WindSpeedGustMPH,Humidity,HourlyPrecipIn,Conditions,Clouds,dailyrainin,SolarRadiationWatts/m^2,SoftwareType,DateUTC
2013-10-15 00:02:00,48.9,47.0,29.81,East,101,16.0,23.0,93,0.06,,---,0.96,0.00,VWS V14.01,2013-10-15 05:02:00,
2013-10-15 00:07:00,48.9,47.0,29.81,ESE,121,17.0,20.0,93,0.05,,---,0.00,0.00,VWS V14.01,2013-10-15 05:07:00,
2013-10-15 00:12:00,49.0,47.1,29.81,SE,124,15.0,20.0,93,0.05,,---,0.00,0.00,VWS V14.01,2013-10-15 05:12:00,
2013-10-15 00:17:00,49.1,47.2,29.80,ESE,109,16.0,20.0,93,0.05,,---,0.00,0.00,VWS V14.01,2013-10-15 05:17:00,
2013-10-15 00:22:00,49.1,47.2,29.79,ESE,102,13.0,21.0,93,0.03,,---,0.00,0.00,VWS V14.01,2013-10-15 05:22:00,
2013-10-15 00:27:00,49.1,47.2,29.77,ESE,117,14.0,22.0,93,0.03,,---,0.00,0.00,VWS V14.01,2013-10-15 05:27:00,
2013-10-15 00:32:00,49.2,47.3,29.76,ESE,107,18.0,22.0,93,0.03,,---,0.00,0.00,VWS V14.01,2013-10-15 05:32:00,
2013-10-15 00:37:00,49.2,47.0,29.79,SE,140,18.0,22.0,92,0.01,,---,0.00,0.00,VWS V14.01,2013-10-15 05:37:00,
2013-10-15 00:42:00,49.3,47.1,29.79,ESE,116,11.0,22.0,92,0.01,,---,0.00,0.00,VWS V14.01,2013-10-15 05:42:00,
2013-10-15 00:47:00,49.4,47.2,29.79,SE,126,18.0,22.0,92,0.01,,---,0.00,0.00,VWS V14.01,2013-10-15 05:47:00,
2013-10-15 00:52:00,49.4,47.2,29.78,ESE,121,17.0,19.0,92,0.00,,---,0.00,0.00,VWS V14.01,2013-10-15 05:52:00,
2013-10-15 00:57:00,49.5,47.3,29.77,ESE,121,20.0,23.0,92,0.00,,---,0.00,0.00,VWS V14.01,2013-10-15 05:57:00,
2013-10-15 01:02:00,49.6,47.1,29.77,SE,133,19.0,23.0,91,0.00,,---,0.00,0.00,VWS V14.01,2013-10-15 06:02:00,
2013-10-15 01:07:00,49.6,47.1,29.77,SE,126,17.0,21.0,91,0.00,,---,0.00,0.00,VWS V14.01,2013-10-15 06:07:00,
2013-10-15 01:12:00,49.6,47.1,29.76,ESE,122,13.0,21.0,91,0.00,,---,0.00,0.00,VWS V14.01,2013-10-15 06:12:00,
2013-10-15 01:17:00,49.6,47.1,29.76,ESE,115,14.0,21.0,91,0.00,,---,0.00,0.00,VWS V14.01,2013-10-15 06:17:00,
2013-10-15 01:22:00,49.6,47.1,29.76,ESE,121,13.0,18.0,91,0.00,,---,0.00,0.00,VWS V14.01,2013-10-15 06:22:00,
2013-10-15 01:27:00,49.6,47.1,29.76,ESE,123,13.0,19.0,91,0.00,,---,0.00,0.00,VWS V14.01,2013-10-15 06:27:00,
2013-10-15 01:32:00,49.7,47.2,29.75,ESE,118,13.0,19.0,91,0.00,,---,0.00,0.00,VWS V14.01,2013-10-15 06:32:00,
2013-10-15 01:37:00,49.7,47.2,29.74,ESE,111,15.0,21.0,91,0.00,,---,0.00,0.00,VWS V14.01,2013-10-15 06:37:00,
2013-10-15 01:42:00,49.7,47.2,29.75,ESE,107,16.0,21.0,91,0.00,,---,0.00,0.00,VWS V14.01,2013-10-15 06:42:00,
2013-10-15 01:47:00,49.8,47.3,29.75,ESE,115,18.0,21.0,91,0.00,,---,0.00,0.00,VWS V14.01,2013-10-15 06:47:00,
2013-10-15 01:52:00,49.8,47.3,29.75,SE,129,18.0,21.0,91,0.00,,---,0.00,0.00,VWS V14.01,2013-10-15 06:52:00,
2013-10-15 01:57:00,49.8,47.3,29.74,ESE,119,13.0,22.0,91,0.00,,---,0.00,0.00,VWS V14.01,2013-10-15 06:57:00,
2013-10-15 02:02:00,49.9,47.4,29.75,SE,124,16.0,22.0,91,0.00,,---,0.00,0.00,VWS V14.01,2013-10-15 07:02:00,
2013-10-15 02:07:00,49.9,47.4,29.75,ESE,123,13.0,19.0,91,0.00,,---,0.00,0.00,VWS V14.01,2013-10-15 07:07:00,
2013-10-15 02:12:00,50.0,47.5,29.74,ESE,117,14.0,19.0,91,0.00,,---,0.00,0.00,VWS V14.01,2013-10-15 07:12:00,
2013-10-15 02:17:00,50.0,47.2,29.73,ESE,113,12.0,21.0,90,0.00,,---,0.00,0.00,VWS V14.01,2013-10-15 07:17:00,
2013-10-15 02:22:00,50.1,47.3,29.73,SE,130,13.0,22.0,90,0.00,,---,0.00,0.00,VWS V14.01,2013-10-15 07:22:00,
2013-10-15 02:27:00,50.1,47.3,29.73,ESE,118,14.0,22.0,90,0.00,,---,0.00,0.00,VWS V14.01,2013-10-15 07:27:00,
2013-10-15 02:32:00,50.1,47.3,29.73,ESE,114,17.0,22.0,90,0.00,,---,0.00,0.00,VWS V14.01,2013-10-15 07:32:00,
2013-10-15 02:37:00,50.1,47.3,29.72,SE,130,11.0,18.0,90,0.00,,---,0.00,0.00,VWS V14.01,2013-10-15 07:37:00,
2013-10-15 02:42:00,50.2,47.4,29.72,ESE,122,13.0,18.0,90,0.00,,---,0.00,0.00,VWS V14.01,2013-10-15 07:42:00,
2013-10-15 02:47:00,50.2,47.4,29.71,SE,129,16.0,20.0,90,0.00,,---,0.00,0.00,VWS V14.01,2013-10-15 07:47:00,
2013-10-15 02:52:00,50.2,47.4,29.70,SE,126,13.0,18.0,90,0.00,,---,0.00,0.00,VWS V14.01,2013-10-15 07:52:00,
2013-10-15 02:57:00,50.2,47.4,29.71,SE,127,16.0,18.0,90,0.00,,---,0.00,0.00,VWS V14.01,2013-10-15 07:57:00,
2013-10-15 03:02:00,50.2,47.4,29.71,ESE,117,13.0,20.0,90,0.00,,---,0.00,0.00,VWS V14.01,2013-10-15 08:02:00,
2013-10-15 03:07:00,50.1,47.3,29.70,ESE,121,11.0,17.0,90,0.00,,---,0.00,0.00,VWS V14.01,2013-10-15 08:07:00,
2013-10-15 03:12:00,50.1,47.3,29.70,ESE,119,13.0,17.0,90,0.00,,---,0.00,0.00,VWS V14.01,2013-10-15 08:12:00,
2013-10-15 03:17:00,50.2,47.4,29.69,SE,137,15.0,19.0,90,0.00,,---,0.00,0.00,VWS V14.01,2013-10-15 08:17:00,
2013-10-15 03:22:00,50.3,47.5,29.69,ESE,121,18.0,19.0,90,0.00,,---,0.00,0.00,VWS V14.01,2013-10-15 08:22:00,
2013-10-15 03:27:00,50.3,47.5,29.69,ESE,117,11.0,19.0,90,0.00,,---,0.00,0.00,VWS V14.01,2013-10-15 08:27:00,
2013-10-15 03:32:00,50.3,47.5,29.69,ESE,116,14.0,19.0,90,0.00,,---,0.00,0.00,VWS V14.01,2013-10-15 08:32:00,
2013-10-15 03:37:00,50.3,47.5,29.68,ESE,122,13.0,15.0,90,0.01,,---,0.01,0.00,VWS V14.01,2013-10-15 08:37:00,
2013-10-15 03:42:00,50.2,47.4,29.68,SE,131,15.0,19.0,90,0.01,,---,0.01,0.00,VWS V14.01,2013-10-15 08:42:00,
2013-10-15 03:47:00,50.1,47.6,29.68,ESE,121,14.0,19.0,91,0.01,,---,0.01,0.00,VWS V14.01,2013-10-15 08:47:00,
2013-10-15 03:50:00,50.1,47.6,29.68,ESE,121,13.0,14.0,91,0.01,,---,0.01,0.00,VWS V14.01,2013-10-15 08:50:00,
2013-10-15 03:55:00,50.0,47.5,29.67,ESE,115,12.0,18.0,91,0.01,,---,0.01,0.00,VWS V14.01,2013-10-15 08:55:00,
2013-10-15 04:00:00,50.0,47.5,29.67,ESE,121,14.0,18.0,91,0.01,,---,0.01,0.00,VWS V14.01,2013-10-15 09:00:00,
2013-10-15 04:05:00,49.9,47.4,29.66,SE,124,14.0,14.0,91,0.01,,---,0.01,0.00,VWS V14.01,2013-10-15 09:05:00,
2013-10-15 04:10:00,49.9,47.7,29.66,ESE,116,11.0,17.0,92,0.01,,---,0.01,0.00,VWS V14.01,2013-10-15 09:10:00,
2013-10-15 04:15:00,49.9,47.7,29.66,ESE,117,14.0,17.0,92,0.01,,---,0.01,0.00,VWS V14.01,2013-10-15 09:15:00,
2013-10-15 04:20:00,49.9,47.7,29.66,ESE,115,13.0,15.0,92,0.01,,---,0.01,0.00,VWS V14.01,2013-10-15 09:20:00,
2013-10-15 04:25:00,50.0,47.8,29.65,ESE,117,13.0,19.0,92,0.01,,---,0.01,0.00,VWS V14.01,2013-10-15 09:25:00,
2013-10-15 04:30:00,50.0,47.8,29.64,ESE,117,15.0,21.0,92,0.01,,---,0.01,0.00,VWS V14.01,2013-10-15 09:30:00,
2013-10-15 04:35:00,50.1,47.9,29.65,SE,132,12.0,15.0,92,0.01,,---,0.01,0.00,VWS V14.01,2013-10-15 09:35:00,
2013-10-15 04:40:00,50.1,47.9,29.65,SE,134,10.0,16.0,92,0.01,,---,0.01,0.00,VWS V14.01,2013-10-15 09:40:00,
2013-10-15 04:45:00,50.1,47.9,29.65,ESE,116,10.0,17.0,92,0.01,,---,0.01,0.00,VWS V14.01,2013-10-15 09:45:00,
2013-10-15 04:50:00,50.2,48.0,29.65,SE,128,11.0,18.0,92,0.00,,---,0.01,0.00,VWS V14.01,2013-10-15 09:50:00,
2013-10-15 04:55:00,50.3,48.1,29.64,ESE,119,8.0,18.0,92,0.00,,---,0.01,0.00,VWS V14.01,2013-10-15 09:55:00,
2013-10-15 05:00:00,50.3,48.1,29.64,ESE,121,7.0,18.0,92,0.00,,---,0.01,0.00,VWS V14.01,2013-10-15 10:00:00,
2013-10-15 05:05:00,50.3,48.1,29.64,ESE,118,7.0,7.0,92,0.00,,---,0.01,0.00,VWS V14.01,2013-10-15 10:05:00,
2013-10-15 05:10:00,50.4,48.2,29.64,SE,127,8.0,11.0,92,0.00,,---,0.01,0.00,VWS V14.01,2013-10-15 10:10:00,
2013-10-15 05:15:00,50.5,48.3,29.64,SE,128,13.0,15.0,92,0.00,,---,0.01,0.00,VWS V14.01,2013-10-15 10:15:00,
2013-10-15 05:20:00,50.7,48.8,29.64,SE,132,8.0,14.0,93,0.00,,---,0.01,0.00,VWS V14.01,2013-10-15 10:20:00,
2013-10-15 05:25:00,50.9,48.7,29.64,SE,146,11.0,15.0,92,0.00,,---,0.01,0.00,VWS V14.01,2013-10-15 10:25:00,
2013-10-15 05:30:00,51.0,48.8,29.64,SE,130,11.0,15.0,92,0.00,,---,0.01,0.00,VWS V14.01,2013-10-15 10:30:00,
2013-10-15 05:35:00,51.2,49.2,29.64,SE,134,9.0,14.0,93,0.00,,---,0.01,0.00,VWS V14.01,2013-10-15 10:35:00,
2013-10-15 05:40:00,51.4,49.5,29.64,SE,125,7.0,15.0,93,0.00,,---,0.01,0.00,VWS V14.01,2013-10-15 10:40:00,
2013-10-15 05:45:00,51.4,49.5,29.63,ESE,122,7.0,15.0,93,0.00,,---,0.01,0.00,VWS V14.01,2013-10-15 10:45:00,
2013-10-15 05:50:00,51.5,49.5,29.63,SE,124,9.0,10.0,93,0.00,,---,0.01,0.00,VWS V14.01,2013-10-15 10:50:00,
2013-10-15 05:55:00,51.6,49.7,29.63,SE,132,13.0,13.0,93,0.00,,---,0.01,0.00,VWS V14.01,2013-10-15 10:55:00,
2013-10-15 06:00:00,51.7,49.8,29.63,SE,128,9.0,16.0,93,0.00,,---,0.01,0.00,VWS V14.01,2013-10-15 11:00:00,
2013-10-15 06:05:00,51.8,49.8,29.62,SE,134,10.0,14.0,93,0.00,,---,0.01,0.00,VWS V14.01,2013-10-15 11:05:00,
2013-10-15 06:10:00,52.0,50.0,29.62,SE,130,7.0,14.0,93,0.00,,---,0.01,0.00,VWS V14.01,2013-10-15 11:10:00,
2013-10-15 06:15:00,52.1,50.1,29.62,SE,136,9.0,14.0,93,0.00,,---,0.01,0.00,VWS V14.01,2013-10-15 11:15:00,
2013-10-15 06:20:00,52.2,50.5,29.62,SE,146,10.0,14.0,94,0.00,,---,0.01,0.00,VWS V14.01,2013-10-15 11:20:00,
2013-10-15 06:25:00,52.4,50.7,29.62,SSE,157,9.0,14.0,94,0.00,,---,0.01,0.00,VWS V14.01,2013-10-15 11:25:00,
2013-10-15 06:30:00,52.5,50.8,29.62,SE,137,11.0,14.0,94,0.00,,---,0.01,0.00,VWS V14.01,2013-10-15 11:30:00,
2013-10-15 06:35:00,52.7,51.0,29.61,SSE,168,9.0,12.0,94,0.00,,---,0.01,0.00,VWS V14.01,2013-10-15 11:35:00,
2013-10-15 06:40:00,52.9,51.2,29.61,SSE,161,8.0,13.0,94,0.00,,---,0.01,0.00,VWS V14.01,2013-10-15 11:40:00,
2013-10-15 06:45:00,53.0,51.3,29.62,SSE,157,10.0,13.0,94,0.00,,---,0.01,0.00,VWS V14.01,2013-10-15 11:45:00,
2013-10-15 06:50:00,53.1,51.4,29.61,SSE,161,7.0,14.0,94,0.00,,---,0.01,0.00,VWS V14.01,2013-10-15 11:50:00,
2013-10-15 06:55:00,53.3,51.6,29.62,SSW,209,17.0,22.0,94,0.00,,---,0.01,0.00,VWS V14.01,2013-10-15 11:55:00,
2013-10-15 07:00:00,53.4,51.7,29.61,SSW,202,16.0,22.0,94,0.00,,---,0.01,0.00,VWS V14.01,2013-10-15 12:00:00,
2013-10-15 07:05:00,53.3,51.3,29.61,SSW,192,16.0,17.0,93,0.00,,---,0.01,0.00,VWS V14.01,2013-10-15 12:05:00,
2013-10-15 07:10:00,53.1,51.1,29.61,South,181,15.0,18.0,93,0.00,,---,0.01,0.00,VWS V14.01,2013-10-15 12:10:00,
2013-10-15 07:15:00,53.0,50.7,29.62,South,191,10.0,18.0,92,0.00,,---,0.01,0.00,VWS V14.01,2013-10-15 12:15:00,
2013-10-15 07:20:00,52.8,50.5,29.62,SSW,210,9.0,16.0,92,0.00,,---,0.01,0.00,VWS V14.01,2013-10-15 12:20:00,
2013-10-15 07:25:00,52.7,50.5,29.62,SW,224,13.0,22.0,92,0.00,,---,0.01,0.00,VWS V14.01,2013-10-15 12:25:00,
2013-10-15 07:30:00,52.6,50.3,29.62,SSW,204,11.0,22.0,92,0.00,,---,0.01,0.00,VWS V14.01,2013-10-15 12:30:00,
2013-10-15 07:35:00,52.5,50.2,29.62,SSW,203,13.0,21.0,92,0.00,,---,0.01,0.00,VWS V14.01,2013-10-15 12:35:00,
2013-10-15 07:40:00,52.4,50.2,29.62,South,190,16.0,21.0,92,0.00,,---,0.01,0.00,VWS V14.01,2013-10-15 12:40:00,
2013-10-15 07:45:00,52.3,50.0,29.62,SW,219,14.0,21.0,92,0.00,,---,0.01,0.00,VWS V14.01,2013-10-15 12:45:00,
2013-10-15 07:50:00,52.2,50.0,29.63,SSW,207,14.0,16.0,92,0.00,,---,0.01,0.00,VWS V14.01,2013-10-15 12:50:00,
2013-10-15 07:55:00,52.1,49.8,29.62,SSW,198,14.0,17.0,92,0.00,,---,0.01,0.00,VWS V14.01,2013-10-15 12:55:00,
2013-10-15 08:00:00,52.0,49.8,29.62,SSW,207,10.0,19.0,92,0.00,,---,0.01,0.00,VWS V14.01,2013-10-15 13:00:00,
2013-10-15 08:05:00,51.9,49.7,29.62,SSW,213,11.0,17.0,92,0.00,,---,0.01,5.00,VWS V14.01,2013-10-15 13:05:00,
2013-10-15 08:10:00,51.9,49.4,29.63,SSW,210,14.0,20.0,91,0.00,,---,0.01,7.00,VWS V14.01,2013-10-15 13:10:00,
2013-10-15 08:15:00,51.7,49.2,29.63,SSW,209,17.0,20.0,91,0.00,,---,0.01,11.00,VWS V14.01,2013-10-15 13:15:00,
2013-10-15 08:20:00,51.5,49.0,29.63,SSW,209,19.0,19.0,91,0.00,,---,0.01,12.00,VWS V14.01,2013-10-15 13:20:00,
2013-10-15 08:25:00,51.4,48.9,29.63,SW,217,16.0,19.0,91,0.00,,---,0.01,18.00,VWS V14.01,2013-10-15 13:25:00,
2013-10-15 08:30:00,51.3,48.8,29.63,SW,218,16.0,19.0,91,0.00,,---,0.01,16.00,VWS V14.01,2013-10-15 13:30:00,
2013-10-15 08:35:00,51.3,48.8,29.63,SW,218,10.0,14.0,91,0.00,,---,0.01,18.00,VWS V14.01,2013-10-15 13:35:00,
2013-10-15 08:40:00,51.2,48.7,29.63,SSW,210,11.0,15.0,91,0.00,,---,0.01,25.00,VWS V14.01,2013-10-15 13:40:00,
2013-10-15 08:45:00,51.2,48.7,29.64,SW,215,6.0,15.0,91,0.00,,---,0.01,21.00,VWS V14.01,2013-10-15 13:45:00,
2013-10-15 08:50:00,51.2,48.7,29.64,SSW,207,10.0,16.0,91,0.00,,---,0.01,18.00,VWS V14.01,2013-10-15 13:50:00,
2013-10-15 08:55:00,51.1,48.6,29.64,SW,227,11.0,16.0,91,0.00,,---,0.01,19.00,VWS V14.01,2013-10-15 13:55:00,
2013-10-15 09:00:00,51.1,48.6,29.64,SSW,207,16.0,20.0,91,0.00,,---,0.01,18.00,VWS V14.01,2013-10-15 14:00:00,
2013-10-15 09:05:00,51.1,48.6,29.64,SSW,199,15.0,16.0,91,0.00,,---,0.01,12.00,VWS V14.01,2013-10-15 14:05:00,
2013-10-15 09:10:00,51.0,48.2,29.64,SSW,196,12.0,18.0,90,0.00,,---,0.01,12.00,VWS V14.01,2013-10-15 14:10:00,
2013-10-15 09:15:00,50.8,48.0,29.64,SSW,207,13.0,18.0,90,0.00,,---,0.01,19.00,VWS V14.01,2013-10-15 14:15:00,
2013-10-15 09:20:00,50.6,48.1,29.64,SSW,203,12.0,18.0,91,0.00,,---,0.01,19.00,VWS V14.01,2013-10-15 14:20:00,
2013-10-15 09:25:00,50.5,48.0,29.64,SSW,194,9.0,18.0,91,0.00,,---,0.01,18.00,VWS V14.01,2013-10-15 14:25:00,
2013-10-15 09:30:00,50.4,47.9,29.65,SSW,211,15.0,18.0,91,0.00,,---,0.01,23.00,VWS V14.01,2013-10-15 14:30:00,
2013-10-15 09:35:00,50.2,47.7,29.65,SSW,213,10.0,14.0,91,0.00,,---,0.01,26.00,VWS V14.01,2013-10-15 14:35:00,
2013-10-15 09:40:00,50.1,47.6,29.65,SSW,210,17.0,17.0,91,0.00,,---,0.01,32.00,VWS V14.01,2013-10-15 14:40:00,
2013-10-15 09:45:00,49.9,47.4,29.65,SSW,198,12.0,20.0,91,0.00,,---,0.01,26.00,VWS V14.01,2013-10-15 14:45:00,
2013-10-15 09:50:00,49.9,47.4,29.65,South,187,11.0,16.0,91,0.00,,---,0.01,33.00,VWS V14.01,2013-10-15 14:50:00,
2013-10-15 09:55:00,49.7,47.2,29.65,SSW,195,15.0,20.0,91,0.00,,---,0.01,33.00,VWS V14.01,2013-10-15 14:55:00,
2013-10-15 10:00:00,49.7,47.2,29.65,SSW,208,12.0,20.0,91,0.00,,---,0.01,26.00,VWS V14.01,2013-10-15 15:00:00,
2013-10-15 10:05:00,49.7,47.2,29.66,South,176,9.0,17.0,91,0.00,,---,0.01,21.00,VWS V14.01,2013-10-15 15:05:00,
2013-10-15 10:10:00,49.7,47.2,29.66,South,191,10.0,17.0,91,0.00,,---,0.01,16.00,VWS V14.01,2013-10-15 15:10:00,
2013-10-15 10:15:00,49.6,47.1,29.66,South,189,12.0,17.0,91,0.00,,---,0.01,25.00,VWS V14.01,2013-10-15 15:15:00,
2013-10-15 10:20:00,49.6,47.1,29.66,SSW,199,16.0,16.0,91,0.00,,---,0.01,32.00,VWS V14.01,2013-10-15 15:20:00,
2013-10-15 10:25:00,49.6,46.8,29.66,SSW,203,13.0,20.0,90,0.00,,---,0.01,37.00,VWS V14.01,2013-10-15 15:25:00,
2013-10-15 10:30:00,49.4,46.6,29.66,SSW,206,20.0,24.0,90,0.00,,---,0.01,63.00,VWS V14.01,2013-10-15 15:30:00,
2013-10-15 10:35:00,49.3,46.8,29.66,SSW,202,15.0,16.0,91,0.00,,---,0.01,88.00,VWS V14.01,2013-10-15 15:35:00,
2013-10-15 10:40:00,49.4,46.9,29.66,South,186,15.0,16.0,91,0.01,,---,0.02,102.00,VWS V14.01,2013-10-15 15:40:00,
2013-10-15 10:45:00,49.2,46.7,29.66,SSW,195,12.0,17.0,91,0.02,,---,0.03,79.00,VWS V14.01,2013-10-15 15:45:00,
2013-10-15 10:50:00,49.0,46.8,29.66,SSW,203,11.0,15.0,92,0.03,,---,0.04,70.00,VWS V14.01,2013-10-15 15:50:00,
2013-10-15 10:55:00,48.8,46.6,29.66,SSW,202,15.0,21.0,92,0.05,,---,0.06,63.00,VWS V14.01,2013-10-15 15:55:00,
2013-10-15 11:00:00,48.7,46.5,29.66,SSW,195,14.0,21.0,92,0.06,,---,0.07,63.00,VWS V14.01,2013-10-15 16:00:00,
2013-10-15 11:05:00,48.7,46.5,29.66,SSW,198,10.0,12.0,92,0.06,,---,0.07,62.00,VWS V14.01,2013-10-15 16:05:00,
2013-10-15 11:10:00,48.7,46.8,29.66,SSW,197,6.0,14.0,93,0.06,,---,0.07,63.00,VWS V14.01,2013-10-15 16:10:00,
2013-10-15 11:15:00,48.6,46.7,29.66,South,182,13.0,14.0,93,0.06,,---,0.07,53.00,VWS V14.01,2013-10-15 16:15:00,
2013-10-15 11:20:00,48.5,46.6,29.66,SSW,196,13.0,18.0,93,0.06,,---,0.07,51.00,VWS V14.01,2013-10-15 16:20:00,
2013-10-15 11:25:00,48.5,46.6,29.66,SSW,209,11.0,18.0,93,0.06,,---,0.07,63.00,VWS V14.01,2013-10-15 16:25:00,
2013-10-15 11:30:00,48.5,46.6,29.66,SSW,198,14.0,18.0,93,0.06,,---,0.07,63.00,VWS V14.01,2013-10-15 16:30:00,
2013-10-15 11:35:00,48.6,46.7,29.66,SSW,202,12.0,16.0,93,0.06,,---,0.07,72.00,VWS V14.01,2013-10-15 16:35:00,
2013-10-15 11:40:00,48.6,46.7,29.65,SSW,199,11.0,16.0,93,0.06,,---,0.07,62.00,VWS V14.01,2013-10-15 16:40:00,
2013-10-15 11:45:00,48.6,46.7,29.66,SSW,196,13.0,16.0,93,0.06,,---,0.07,62.00,VWS V14.01,2013-10-15 16:45:00,
2013-10-15 11:50:00,48.5,46.6,29.65,SSW,212,15.0,15.0,93,0.03,,---,0.07,79.00,VWS V14.01,2013-10-15 16:50:00,
2013-10-15 11:55:00,48.5,46.6,29.65,SSW,195,10.0,16.0,93,0.03,,---,0.07,74.00,VWS V14.01,2013-10-15 16:55:00,
2013-10-15 12:00:00,48.6,46.7,29.66,SSW,206,8.0,16.0,93,0.03,,---,0.07,65.00,VWS V14.01,2013-10-15 17:00:00,
2013-10-15 12:05:00,48.6,46.7,29.66,SSW,210,10.0,13.0,93,0.00,,---,0.07,84.00,VWS V14.01,2013-10-15 17:05:00,
2013-10-15 12:10:00,48.8,46.9,29.66,SSW,198,6.0,15.0,93,0.00,,---,0.07,102.00,VWS V14.01,2013-10-15 17:10:00,
2013-10-15 12:15:00,48.8,46.9,29.66,SSW,199,17.0,18.0,93,0.00,,---,0.07,95.00,VWS V14.01,2013-10-15 17:15:00,
2013-10-15 12:20:00,48.6,46.7,29.66,SSW,206,16.0,17.0,93,0.00,,---,0.07,67.00,VWS V14.01,2013-10-15 17:20:00,
2013-10-15 12:25:00,48.6,46.7,29.66,SSW,206,11.0,17.0,93,0.00,,---,0.07,51.00,VWS V14.01,2013-10-15 17:25:00,
2013-10-15 12:30:00,48.6,46.7,29.66,SSW,207,12.0,17.0,93,0.00,,---,0.07,44.00,VWS V14.01,2013-10-15 17:30:00,
2013-10-15 12:35:00,48.7,47.0,29.66,SSW,194,9.0,14.0,94,0.00,,---,0.07,42.00,VWS V14.01,2013-10-15 17:35:00,
2013-10-15 12:40:00,48.8,47.2,29.66,SSW,203,13.0,17.0,94,0.00,,---,0.07,33.00,VWS V14.01,2013-10-15 17:40:00,
2013-10-15 12:45:00,48.9,47.2,29.65,SSW,200,14.0,17.0,94,0.00,,---,0.07,40.00,VWS V14.01,2013-10-15 17:45:00,
2013-10-15 12:50:00,49.1,47.5,29.65,SSW,205,16.0,16.0,94,0.00,,---,0.07,47.00,VWS V14.01,2013-10-15 17:50:00,
2013-10-15 12:55:00,49.3,47.7,29.65,SSW,204,9.0,16.0,94,0.00,,---,0.07,56.00,VWS V14.01,2013-10-15 17:55:00,
2013-10-15 13:00:00,49.5,47.8,29.65,SW,215,12.0,17.0,94,0.00,,---,0.07,56.00,VWS V14.01,2013-10-15 18:00:00,
2013-10-15 13:05:00,49.7,48.0,29.65,SW,223,7.0,12.0,94,0.00,,---,0.07,62.00,VWS V14.01,2013-10-15 18:05:00,
2013-10-15 13:10:00,49.9,48.2,29.65,SW,234,10.0,14.0,94,0.00,,---,0.07,62.00,VWS V14.01,2013-10-15 18:10:00,
2013-10-15 13:15:00,50.2,48.8,29.65,WSW,240,9.0,15.0,95,0.00,,---,0.07,63.00,VWS V14.01,2013-10-15 18:15:00,
2013-10-15 13:20:00,50.3,48.9,29.65,West,262,14.0,14.0,95,0.00,,---,0.07,44.00,VWS V14.01,2013-10-15 18:20:00,
2013-10-15 13:25:00,50.3,48.9,29.65,West,272,7.0,15.0,95,0.00,,---,0.07,58.00,VWS V14.01,2013-10-15 18:25:00,
2013-10-15 13:30:00,50.2,48.5,29.64,West,265,12.0,16.0,94,0.00,,---,0.07,86.00,VWS V14.01,2013-10-15 18:30:00,
2013-10-15 13:35:00,50.1,48.7,29.64,West,271,10.0,16.0,95,0.00,,---,0.07,83.00,VWS V14.01,2013-10-15 18:35:00,
2013-10-15 13:40:00,50.0,48.6,29.65,West,273,17.0,19.0,95,0.01,,---,0.08,69.00,VWS V14.01,2013-10-15 18:40:00,
2013-10-15 13:45:00,50.0,48.6,29.64,WNW,290,14.0,19.0,95,0.01,,---,0.08,67.00,VWS V14.01,2013-10-15 18:45:00,
2013-10-15 13:50:00,49.9,48.5,29.65,West,277,7.0,15.0,95,0.01,,---,0.08,79.00,VWS V14.01,2013-10-15 18:50:00,
2013-10-15 13:55:00,49.9,48.2,29.65,West,278,16.0,22.0,94,0.01,,---,0.08,76.00,VWS V14.01,2013-10-15 18:55:00,
2013-10-15 14:00:00,49.9,48.2,29.65,WNW,288,17.0,22.0,94,0.01,,---,0.08,95.00,VWS V14.01,2013-10-15 19:00:00,
2013-10-15 14:05:00,49.9,48.2,29.65,West,281,15.0,20.0,94,0.01,,---,0.08,102.00,VWS V14.01,2013-10-15 19:05:00,
2013-10-15 14:10:00,49.9,48.2,29.65,WNW,288,14.0,20.0,94,0.01,,---,0.08,93.00,VWS V14.01,2013-10-15 19:10:00,
2013-10-15 14:15:00,50.0,48.3,29.65,WNW,284,13.0,20.0,94,0.01,,---,0.08,91.00,VWS V14.01,2013-10-15 19:15:00,
2013-10-15 14:20:00,50.0,48.3,29.65,WNW,286,16.0,20.0,94,0.01,,---,0.08,95.00,VWS V14.01,2013-10-15 19:20:00,
2013-10-15 14:25:00,50.0,48.3,29.65,WNW,290,19.0,23.0,94,0.01,,---,0.08,104.00,VWS V14.01,2013-10-15 19:25:00,
2013-10-15 14:30:00,50.1,48.4,29.65,WNW,289,20.0,23.0,94,0.01,,---,0.08,127.00,VWS V14.01,2013-10-15 19:30:00,
2013-10-15 14:35:00,50.1,48.4,29.65,WNW,296,12.0,19.0,94,0.01,,---,0.08,116.00,VWS V14.01,2013-10-15 19:35:00,
2013-10-15 14:40:00,50.3,48.6,29.65,WNW,289,21.0,21.0,94,0.01,,---,0.08,134.00,VWS V14.01,2013-10-15 19:40:00,
2013-10-15 14:45:00,50.3,48.6,29.65,WNW,293,17.0,28.0,94,0.01,,---,0.08,113.00,VWS V14.01,2013-10-15 19:45:00,
2013-10-15 14:50:00,50.4,48.7,29.65,WNW,300,12.0,21.0,94,0.00,,---,0.08,118.00,VWS V14.01,2013-10-15 19:50:00,
2013-10-15 14:55:00,50.4,48.7,29.66,NW,309,23.0,24.0,94,0.00,,---,0.08,91.00,VWS V14.01,2013-10-15 19:55:00,
2013-10-15 15:00:00,50.3,48.6,29.66,NW,305,22.0,26.0,94,0.00,,---,0.08,86.00,VWS V14.01,2013-10-15 20:00:00,
2013-10-15 15:05:00,50.2,48.3,29.66,NW,310,20.0,25.0,93,0.00,,---,0.08,69.00,VWS V14.01,2013-10-15 20:05:00,
2013-10-15 15:10:00,50.1,48.2,29.66,NW,316,13.0,25.0,93,0.00,,---,0.08,65.00,VWS V14.01,2013-10-15 20:10:00,
2013-10-15 15:15:00,50.1,48.2,29.67,NW,310,21.0,25.0,93,0.00,,---,0.08,60.00,VWS V14.01,2013-10-15 20:15:00,
2013-10-15 15:20:00,50.0,48.1,29.67,NNW,327,19.0,22.0,93,0.00,,---,0.08,62.00,VWS V14.01,2013-10-15 20:20:00,
2013-10-15 15:25:00,49.9,48.0,29.67,NW,314,19.0,23.0,93,0.00,,---,0.08,58.00,VWS V14.01,2013-10-15 20:25:00,
2013-10-15 15:30:00,49.8,47.9,29.67,NW,323,22.0,25.0,93,0.00,,---,0.08,47.00,VWS V14.01,2013-10-15 20:30:00,
2013-10-15 15:35:00,49.7,47.8,29.68,NW,309,19.0,21.0,93,0.00,,---,0.08,42.00,VWS V14.01,2013-10-15 20:35:00,
2013-10-15 15:40:00,49.7,47.8,29.68,NW,325,15.0,24.0,93,0.00,,---,0.08,47.00,VWS V14.01,2013-10-15 20:40:00,
2013-10-15 15:45:00,49.6,47.7,29.69,NW,316,14.0,24.0,93,0.00,,---,0.08,49.00,VWS V14.01,2013-10-15 20:45:00,
2013-10-15 15:50:00,49.6,47.7,29.69,NW,321,19.0,24.0,93,0.00,,---,0.08,54.00,VWS V14.01,2013-10-15 20:50:00,
2013-10-15 15:55:00,49.6,47.7,29.69,NW,325,16.0,24.0,93,0.00,,---,0.08,47.00,VWS V14.01,2013-10-15 20:55:00,
2013-10-15 16:00:00,49.5,47.6,29.69,NW,319,18.0,24.0,93,0.00,,---,0.08,42.00,VWS V14.01,2013-10-15 21:00:00,
2013-10-15 16:05:00,49.5,47.6,29.70,NW,323,21.0,21.0,93,0.00,,---,0.08,40.00,VWS V14.01,2013-10-15 21:05:00,
2013-10-15 16:10:00,49.5,47.6,29.70,NNW,330,16.0,25.0,93,0.00,,---,0.08,37.00,VWS V14.01,2013-10-15 21:10:00,
2013-10-15 16:15:00,49.4,47.5,29.70,NW,306,15.0,25.0,93,0.00,,---,0.08,28.00,VWS V14.01,2013-10-15 21:15:00,
2013-10-15 16:20:00,49.1,47.2,29.71,NNW,331,19.0,21.0,93,0.00,,---,0.08,35.00,VWS V14.01,2013-10-15 21:20:00,
2013-10-15 16:25:00,48.8,46.9,29.70,NW,315,19.0,24.0,93,0.00,,---,0.08,33.00,VWS V14.01,2013-10-15 21:25:00,
2013-10-15 16:30:00,48.8,46.9,29.71,NW,325,19.0,25.0,93,0.00,,---,0.08,26.00,VWS V14.01,2013-10-15 21:30:00,
2013-10-15 16:35:00,48.6,46.7,29.71,NW,326,19.0,23.0,93,0.00,,---,0.08,30.00,VWS V14.01,2013-10-15 21:35:00,
2013-10-15 16:40:00,48.4,46.5,29.72,NW,323,22.0,25.0,93,0.00,,---,0.08,33.00,VWS V14.01,2013-10-15 21:40:00,
2013-10-15 16:45:00,48.3,46.7,29.72,NW,313,20.0,25.0,94,0.01,,---,0.09,32.00,VWS V14.01,2013-10-15 21:45:00,
2013-10-15 16:50:00,48.1,46.5,29.72,NW,314,17.0,27.0,94,0.01,,---,0.09,28.00,VWS V14.01,2013-10-15 21:50:00,
2013-10-15 16:55:00,48.0,46.4,29.72,NW,315,23.0,27.0,94,0.01,,---,0.09,25.00,VWS V14.01,2013-10-15 21:55:00,
2013-10-15 17:00:00,47.9,46.3,29.73,NW,312,19.0,27.0,94,0.01,,---,0.09,23.00,VWS V14.01,2013-10-15 22:00:00,
2013-10-15 17:05:00,47.8,46.2,29.73,NW,313,17.0,23.0,94,0.01,,---,0.09,25.00,VWS V14.01,2013-10-15 22:05:00,
2013-10-15 17:10:00,47.8,46.2,29.73,NW,315,18.0,23.0,94,0.01,,---,0.09,19.00,VWS V14.01,2013-10-15 22:10:00,
2013-10-15 17:15:00,47.7,46.1,29.73,NW,324,17.0,24.0,94,0.01,,---,0.09,19.00,VWS V14.01,2013-10-15 22:15:00,
2013-10-15 17:20:00,47.6,46.0,29.74,NW,311,20.0,20.0,94,0.01,,---,0.09,16.00,VWS V14.01,2013-10-15 22:20:00,
2013-10-15 17:25:00,47.5,45.9,29.74,NW,313,18.0,22.0,94,0.01,,---,0.09,12.00,VWS V14.01,2013-10-15 22:25:00,
2013-10-15 17:30:00,47.5,45.9,29.74,NW,310,16.0,24.0,94,0.01,,---,0.09,12.00,VWS V14.01,2013-10-15 22:30:00,
2013-10-15 17:35:00,47.4,45.8,29.74,NW,315,20.0,22.0,94,0.01,,---,0.09,16.00,VWS V14.01,2013-10-15 22:35:00,
2013-10-15 17:40:00,47.4,45.8,29.74,NW,313,17.0,22.0,94,0.01,,---,0.09,12.00,VWS V14.01,2013-10-15 22:40:00,
2013-10-15 17:45:00,47.3,45.7,29.75,NW,309,16.0,22.0,94,0.01,,---,0.09,12.00,VWS V14.01,2013-10-15 22:45:00,
2013-10-15 17:50:00,47.2,45.6,29.75,NW,319,18.0,19.0,94,0.00,,---,0.09,9.00,VWS V14.01,2013-10-15 22:50:00,
2013-10-15 17:55:00,47.0,45.4,29.75,NW,319,19.0,21.0,94,0.00,,---,0.09,7.00,VWS V14.01,2013-10-15 22:55:00,
2013-10-15 18:00:00,46.9,45.3,29.75,NW,323,13.0,25.0,94,0.00,,---,0.09,5.00,VWS V14.01,2013-10-15 23:00:00,
2013-10-15 18:05:00,46.8,45.2,29.75,NW,319,16.0,20.0,94,0.00,,---,0.09,5.00,VWS V14.01,2013-10-15 23:05:00,
2013-10-15 18:10:00,46.8,45.2,29.75,NW,314,21.0,24.0,94,0.00,,---,0.09,5.00,VWS V14.01,2013-10-15 23:10:00,
2013-10-15 18:15:00,46.7,45.1,29.75,NW,321,20.0,25.0,94,0.00,,---,0.09,0.00,VWS V14.01,2013-10-15 23:15:00,
2013-10-15 18:20:00,46.7,45.1,29.75,NW,311,23.0,23.0,94,0.00,,---,0.09,0.00,VWS V14.01,2013-10-15 23:20:00,
2013-10-15 18:25:00,46.7,45.1,29.76,NW,323,20.0,24.0,94,0.00,,---,0.09,0.00,VWS V14.01,2013-10-15 23:25:00,
2013-10-15 18:30:00,46.7,45.1,29.76,NW,319,20.0,24.0,94,0.00,,---,0.09,0.00,VWS V14.01,2013-10-15 23:30:00,
2013-10-15 18:35:00,46.7,45.1,29.76,NW,313,19.0,20.0,94,0.00,,---,0.09,0.00,VWS V14.01,2013-10-15 23:35:00,
2013-10-15 18:40:00,46.6,45.0,29.77,NW,310,16.0,22.0,94,0.00,,---,0.09,0.00,VWS V14.01,2013-10-15 23:40:00,
2013-10-15 18:45:00,46.6,45.0,29.77,NW,308,17.0,23.0,94,0.00,,---,0.09,0.00,VWS V14.01,2013-10-15 23:45:00,
2013-10-15 18:50:00,46.5,44.9,29.77,WNW,295,18.0,19.0,94,0.00,,---,0.09,0.00,VWS V14.01,2013-10-15 23:50:00,
2013-10-15 18:55:00,46.4,45.0,29.78,NW,307,16.0,20.0,95,0.00,,---,0.09,0.00,VWS V14.01,2013-10-15 23:55:00,
2013-10-15 19:00:00,46.3,45.0,29.78,NW,306,15.0,26.0,95,0.00,,---,0.09,0.00,VWS V14.01,2013-10-16 00:00:00,
2013-10-15 19:05:00,46.2,44.8,29.79,NW,306,15.0,19.0,95,0.00,,---,0.09,0.00,VWS V14.01,2013-10-16 00:05:00,
2013-10-15 19:10:00,46.1,44.8,29.79,NW,304,16.0,25.0,95,0.00,,---,0.09,0.00,VWS V14.01,2013-10-16 00:10:00,
2013-10-15 19:15:00,46.1,44.5,29.79,NW,311,17.0,25.0,94,0.00,,---,0.09,0.00,VWS V14.01,2013-10-16 00:15:00,
2013-10-15 19:20:00,46.0,44.4,29.80,NW,323,12.0,22.0,94,0.00,,---,0.09,0.00,VWS V14.01,2013-10-16 00:20:00,
2013-10-15 19:25:00,46.0,44.4,29.80,NW,307,19.0,22.0,94,0.00,,---,0.09,0.00,VWS V14.01,2013-10-16 00:25:00,
2013-10-15 19:30:00,45.9,44.3,29.80,NW,307,16.0,24.0,94,0.00,,---,0.09,0.00,VWS V14.01,2013-10-16 00:30:00,
2013-10-15 19:35:00,45.9,44.5,29.81,NW,306,19.0,24.0,95,0.00,,---,0.09,0.00,VWS V14.01,2013-10-16 00:35:00,
2013-10-15 19:40:00,45.9,44.5,29.81,NW,314,19.0,24.0,95,0.00,,---,0.09,0.00,VWS V14.01,2013-10-16 00:40:00,
2013-10-15 19:45:00,45.9,44.5,29.81,NW,321,17.0,24.0,95,0.00,,---,0.09,0.00,VWS V14.01,2013-10-16 00:45:00,
2013-10-15 19:50:00,45.8,44.5,29.81,NW,311,17.0,21.0,95,0.00,,---,0.09,0.00,VWS V14.01,2013-10-16 00:50:00,
2013-10-15 19:55:00,45.8,44.5,29.81,NW,318,16.0,23.0,95,0.00,,---,0.09,0.00,VWS V14.01,2013-10-16 00:55:00,
2013-10-15 20:00:00,45.8,44.5,29.82,NW,318,22.0,25.0,95,0.00,,---,0.09,0.00,VWS V14.01,2013-10-16 01:00:00,
2013-10-15 20:05:00,45.8,44.5,29.82,NW,310,14.0,22.0,95,0.00,,---,0.09,0.00,VWS V14.01,2013-10-16 01:05:00,
2013-10-15 20:10:00,45.7,44.3,29.82,NW,317,19.0,24.0,95,0.00,,---,0.09,0.00,VWS V14.01,2013-10-16 01:10:00,
2013-10-15 20:15:00,45.7,44.3,29.82,NW,309,17.0,24.0,95,0.00,,---,0.09,0.00,VWS V14.01,2013-10-16 01:15:00,
2013-10-15 20:20:00,45.7,44.3,29.82,NW,326,21.0,23.0,95,0.00,,---,0.09,0.00,VWS V14.01,2013-10-16 01:20:00,
2013-10-15 20:25:00,45.6,44.2,29.83,NW,319,19.0,23.0,95,0.00,,---,0.09,0.00,VWS V14.01,2013-10-16 01:25:00,
2013-10-15 20:30:00,45.6,44.2,29.83,NW,318,18.0,24.0,95,0.00,,---,0.09,0.00,VWS V14.01,2013-10-16 01:30:00,
2013-10-15 20:35:00,45.6,44.0,29.84,NW,323,16.0,22.0,94,0.00,,---,0.09,0.00,VWS V14.01,2013-10-16 01:35:00,
2013-10-15 20:40:00,45.6,44.0,29.84,NW,320,24.0,26.0,94,0.00,,---,0.09,0.00,VWS V14.01,2013-10-16 01:40:00,
2013-10-15 20:45:00,45.5,43.9,29.84,NW,321,19.0,26.0,94,0.00,,---,0.09,0.00,VWS V14.01,2013-10-16 01:45:00,
2013-10-15 20:50:00,45.5,43.9,29.84,NW,313,20.0,22.0,94,0.00,,---,0.09,0.00,VWS V14.01,2013-10-16 01:50:00,
2013-10-15 20:55:00,45.5,43.9,29.85,NW,317,15.0,23.0,94,0.00,,---,0.09,0.00,VWS V14.01,2013-10-16 01:55:00,
2013-10-15 21:00:00,45.4,43.8,29.85,NW,325,13.0,23.0,94,0.00,,---,0.09,0.00,VWS V14.01,2013-10-16 02:00:00,
2013-10-15 21:05:00,45.4,43.8,29.85,NW,309,13.0,20.0,94,0.00,,---,0.09,0.00,VWS V14.01,2013-10-16 02:05:00,
2013-10-15 21:10:00,45.4,43.8,29.85,NW,321,17.0,20.0,94,0.00,,---,0.09,0.00,VWS V14.01,2013-10-16 02:10:00,
2013-10-15 21:15:00,45.3,43.7,29.85,NW,323,19.0,21.0,94,0.00,,---,0.09,0.00,VWS V14.01,2013-10-16 02:15:00,
2013-10-15 21:20:00,45.2,43.6,29.85,NW,317,19.0,21.0,94,0.00,,---,0.09,0.00,VWS V14.01,2013-10-16 02:20:00,
2013-10-15 21:25:00,45.2,43.6,29.85,NW,321,19.0,23.0,94,0.00,,---,0.09,0.00,VWS V14.01,2013-10-16 02:25:00,
2013-10-15 21:30:00,45.1,43.5,29.86,NW,321,21.0,23.0,94,0.00,,---,0.09,0.00,VWS V14.01,2013-10-16 02:30:00,
2013-10-15 21:35:00,45.1,43.5,29.86,NW,323,17.0,20.0,94,0.00,,---,0.09,0.00,VWS V14.01,2013-10-16 02:35:00,
2013-10-15 21:40:00,45.0,43.4,29.86,WNW,302,16.0,21.0,94,0.00,,---,0.09,0.00,VWS V14.01,2013-10-16 02:40:00,
2013-10-15 21:45:00,45.0,43.4,29.86,NW,317,20.0,22.0,94,0.00,,---,0.09,0.00,VWS V14.01,2013-10-16 02:45:00,
2013-10-15 21:50:00,44.9,43.3,29.86,NW,324,19.0,22.0,94,0.00,,---,0.09,0.00,VWS V14.01,2013-10-16 02:50:00,
2013-10-15 21:55:00,44.8,43.2,29.86,NNW,329,18.0,22.0,94,0.00,,---,0.09,0.00,VWS V14.01,2013-10-16 02:55:00,
2013-10-15 22:00:00,44.8,43.2,29.86,NW,319,17.0,22.0,94,0.00,,---,0.09,0.00,VWS V14.01,2013-10-16 03:00:00,
2013-10-15 22:05:00,44.7,43.1,29.86,NNW,336,20.0,22.0,94,0.00,,---,0.09,0.00,VWS V14.01,2013-10-16 03:05:00,
2013-10-15 22:10:00,44.7,43.1,29.87,NNW,336,18.0,22.0,94,0.00,,---,0.09,0.00,VWS V14.01,2013-10-16 03:10:00,
2013-10-15 22:15:00,44.6,43.0,29.87,NW,317,14.0,22.0,94,0.00,,---,0.09,0.00,VWS V14.01,2013-10-16 03:15:00,
2013-10-15 22:20:00,44.5,42.9,29.87,NNW,327,17.0,20.0,94,0.00,,---,0.09,0.00,VWS V14.01,2013-10-16 03:20:00,
2013-10-15 22:25:00,44.5,42.9,29.87,NW,324,18.0,20.0,94,0.00,,---,0.09,0.00,VWS V14.01,2013-10-16 03:25:00,
2013-10-15 22:30:00,44.5,42.9,29.87,NW,317,15.0,20.0,94,0.00,,---,0.09,0.00,VWS V14.01,2013-10-16 03:30:00,
2013-10-15 22:35:00,44.5,42.9,29.88,NNW,329,17.0,19.0,94,0.00,,---,0.09,0.00,VWS V14.01,2013-10-16 03:35:00,
2013-10-15 22:40:00,44.5,42.9,29.88,NW,323,20.0,20.0,94,0.00,,---,0.09,0.00,VWS V14.01,2013-10-16 03:40:00,
2013-10-15 22:45:00,44.4,42.8,29.88,NW,314,15.0,20.0,94,0.00,,---,0.09,0.00,VWS V14.01,2013-10-16 03:45:00,
2013-10-15 22:50:00,44.4,42.8,29.88,NW,318,14.0,18.0,94,0.00,,---,0.09,0.00,VWS V14.01,2013-10-16 03:50:00,
2013-10-15 22:55:00,44.3,42.7,29.88,NW,306,12.0,18.0,94,0.00,,---,0.09,0.00,VWS V14.01,2013-10-16 03:55:00,
2013-10-15 23:00:00,44.3,42.7,29.88,NW,310,12.0,18.0,94,0.00,,---,0.09,0.00,VWS V14.01,2013-10-16 04:00:00,
2013-10-15 23:01:00,44.3,42.7,29.88,NW,317,12.0,18.0,94,0.00,,---,0.09,0.00,VWS V14.01,2013-10-16 04:01:00,
2013-10-15 23:02:00,44.3,42.7,29.88,NW,308,14.0,18.0,94,0.00,,---,0.09,0.00,VWS V14.01,2013-10-16 04:02:00,
2013-10-15 23:07:00,44.3,42.7,29.89,NW,317,11.0,18.0,94,0.00,,---,0.09,0.00,VWS V14.01,2013-10-16 04:07:00,
2013-10-15 23:12:00,44.4,42.5,29.88,NW,311,15.0,21.0,93,0.00,,---,0.09,0.00,VWS V14.01,2013-10-16 04:12:00,
2013-10-15 23:17:00,44.5,42.6,29.89,NW,310,17.0,21.0,93,0.00,,---,0.09,0.00,VWS V14.01,2013-10-16 04:17:00,
2013-10-15 23:22:00,44.6,42.7,29.89,NW,311,15.0,18.0,93,0.00,,---,0.09,0.00,VWS V14.01,2013-10-16 04:22:00,
2013-10-15 23:27:00,44.6,42.7,29.89,NW,317,15.0,18.0,93,0.00,,---,0.09,0.00,VWS V14.01,2013-10-16 04:27:00,
2013-10-15 23:32:00,44.6,42.4,29.89,NW,304,13.0,18.0,92,0.00,,---,0.09,0.00,VWS V14.01,2013-10-16 04:32:00,
2013-10-15 23:37:00,44.7,42.5,29.89,NW,310,13.0,20.0,92,0.00,,---,0.09,0.00,VWS V14.01,2013-10-16 04:37:00,
2013-10-15 23:42:00,44.7,42.5,29.89,NW,317,13.0,20.0,92,0.00,,---,0.09,0.00,VWS V14.01,2013-10-16 04:42:00,
2013-10-15 23:47:00,44.7,42.5,29.89,NW,322,12.0,20.0,92,0.00,,---,0.09,0.00,VWS V14.01,2013-10-16 04:47:00,
2013-10-15 23:52:00,44.7,42.5,29.89,NW,314,17.0,19.0,92,0.00,,---,0.09,0.00,VWS V14.01,2013-10-16 04:52:00,
2013-10-15 23:57:00,44.8,42.6,29.89,NW,309,16.0,20.0,92,0.00,,---,0.09,0.00,VWS V14.01,2013-10-16 04:57:00,